﻿<?xml version="1.0" encoding="utf-8"?><gpx creator="Garmin Desktop App" version="1.1" xsi:schemaLocation="http://www.topografix.com/GPX/1/1 http://www.topografix.com/GPX/1/1/gpx.xsd http://www.garmin.com/xmlschemas/WaypointExtension/v1 http://www8.garmin.com/xmlschemas/WaypointExtensionv1.xsd http://www.garmin.com/xmlschemas/TrackPointExtension/v1 http://www.garmin.com/xmlschemas/TrackPointExtensionv1.xsd http://www.garmin.com/xmlschemas/GpxExtensions/v3 http://www8.garmin.com/xmlschemas/GpxExtensionsv3.xsd http://www.garmin.com/xmlschemas/ActivityExtension/v1 http://www8.garmin.com/xmlschemas/ActivityExtensionv1.xsd http://www.garmin.com/xmlschemas/AdventuresExtensions/v1 http://www8.garmin.com/xmlschemas/AdventuresExtensionv1.xsd http://www.garmin.com/xmlschemas/PressureExtension/v1 http://www.garmin.com/xmlschemas/PressureExtensionv1.xsd http://www.garmin.com/xmlschemas/TripExtensions/v1 http://www.garmin.com/xmlschemas/TripExtensionsv1.xsd http://www.garmin.com/xmlschemas/TripMetaDataExtensions/v1 http://www.garmin.com/xmlschemas/TripMetaDataExtensionsv1.xsd http://www.garmin.com/xmlschemas/ViaPointTransportationModeExtensions/v1 http://www.garmin.com/xmlschemas/ViaPointTransportationModeExtensionsv1.xsd http://www.garmin.com/xmlschemas/CreationTimeExtension/v1 http://www.garmin.com/xmlschemas/CreationTimeExtensionsv1.xsd http://www.garmin.com/xmlschemas/AccelerationExtension/v1 http://www.garmin.com/xmlschemas/AccelerationExtensionv1.xsd http://www.garmin.com/xmlschemas/PowerExtension/v1 http://www.garmin.com/xmlschemas/PowerExtensionv1.xsd http://www.garmin.com/xmlschemas/VideoExtension/v1 http://www.garmin.com/xmlschemas/VideoExtensionv1.xsd" xmlns="http://www.topografix.com/GPX/1/1" xmlns:xsi="http://www.w3.org/2001/XMLSchema-instance" xmlns:wptx1="http://www.garmin.com/xmlschemas/WaypointExtension/v1" xmlns:gpxtrx="http://www.garmin.com/xmlschemas/GpxExtensions/v3" xmlns:gpxtpx="http://www.garmin.com/xmlschemas/TrackPointExtension/v1" xmlns:gpxx="http://www.garmin.com/xmlschemas/GpxExtensions/v3" xmlns:trp="http://www.garmin.com/xmlschemas/TripExtensions/v1" xmlns:adv="http://www.garmin.com/xmlschemas/AdventuresExtensions/v1" xmlns:prs="http://www.garmin.com/xmlschemas/PressureExtension/v1" xmlns:tmd="http://www.garmin.com/xmlschemas/TripMetaDataExtensions/v1" xmlns:vptm="http://www.garmin.com/xmlschemas/ViaPointTransportationModeExtensions/v1" xmlns:ctx="http://www.garmin.com/xmlschemas/CreationTimeExtension/v1" xmlns:gpxacc="http://www.garmin.com/xmlschemas/AccelerationExtension/v1" xmlns:gpxpx="http://www.garmin.com/xmlschemas/PowerExtension/v1" xmlns:vidx1="http://www.garmin.com/xmlschemas/VideoExtension/v1">

  <metadata>
    <link href="http://www.garmin.com">
      <text>Garmin International</text>
    </link>
    <time>2024-07-01T16:47:19Z</time>
    <bounds maxlat="45.625660708174109" maxlon="7.058248948305845" minlat="45.611964426934719" minlon="7.023461116477847" />
  </metadata>

  <trk>
    <name>bonne rifugio degli angeli2024-06-29</name>
    <extensions>
      <gpxx:TrackExtension>
        <gpxx:DisplayColor>Yellow</gpxx:DisplayColor>
      </gpxx:TrackExtension>
      <gpxtrkx:TrackStatsExtension xmlns:gpxtrkx="http://www.garmin.com/xmlschemas/TrackStatsExtension/v1">
        <gpxtrkx:Distance>7904</gpxtrkx:Distance>
        <gpxtrkx:TotalElapsedTime>15482</gpxtrkx:TotalElapsedTime>
        <gpxtrkx:MovingTime>11374</gpxtrkx:MovingTime>
        <gpxtrkx:StoppedTime>4102</gpxtrkx:StoppedTime>
        <gpxtrkx:MovingSpeed>0.695</gpxtrkx:MovingSpeed>
        <gpxtrkx:MaxSpeed>2.19</gpxtrkx:MaxSpeed>
        <gpxtrkx:MaxElevation>2944.256</gpxtrkx:MaxElevation>
        <gpxtrkx:MinElevation>1803.585</gpxtrkx:MinElevation>
        <gpxtrkx:Ascent>1130</gpxtrkx:Ascent>
        <gpxtrkx:Descent>21.721</gpxtrkx:Descent>
        <gpxtrkx:AvgAscentRate>0.079</gpxtrkx:AvgAscentRate>
        <gpxtrkx:MaxAscentRate>0.208</gpxtrkx:MaxAscentRate>
        <gpxtrkx:AvgDescentRate>0.147</gpxtrkx:AvgDescentRate>
        <gpxtrkx:MaxDescentRate>-0.241</gpxtrkx:MaxDescentRate>
      </gpxtrkx:TrackStatsExtension>
    </extensions>
    <trkseg>
      <trkpt lat="45.622351784259081" lon="7.058248948305845">
        <ele>1811.1800000000001</ele>
        <time>2024-06-29T07:28:43Z</time>
      </trkpt>
      <trkpt lat="45.622052131220698" lon="7.05796136520803">
        <ele>1811.95</ele>
        <time>2024-06-29T07:34:08Z</time>
      </trkpt>
      <trkpt lat="45.621671760454774" lon="7.057603541761637">
        <ele>1817.01</ele>
        <time>2024-06-29T07:35:21Z</time>
      </trkpt>
      <trkpt lat="45.621267082169652" lon="7.057318473234773">
        <ele>1821.3900000000001</ele>
        <time>2024-06-29T07:36:14Z</time>
      </trkpt>
      <trkpt lat="45.620847400277853" lon="7.057078666985035">
        <ele>1824.3</ele>
        <time>2024-06-29T07:37:03Z</time>
      </trkpt>
      <trkpt lat="45.620428640395403" lon="7.056819582358003">
        <ele>1826.9400000000001</ele>
        <time>2024-06-29T07:37:51Z</time>
      </trkpt>
      <trkpt lat="45.620036032050848" lon="7.056576507166028">
        <ele>1828.6700000000001</ele>
        <time>2024-06-29T07:38:40Z</time>
      </trkpt>
      <trkpt lat="45.619680052623153" lon="7.056316835805774">
        <ele>1830.1099999999999</ele>
        <time>2024-06-29T07:39:28Z</time>
      </trkpt>
      <trkpt lat="45.619332119822502" lon="7.055944008752704">
        <ele>1833.3399999999999</ele>
        <time>2024-06-29T07:40:12Z</time>
      </trkpt>
      <trkpt lat="45.618928866460919" lon="7.05563991330564">
        <ele>1838.26</ele>
        <time>2024-06-29T07:41:00Z</time>
      </trkpt>
      <trkpt lat="45.618510441854596" lon="7.05536724999547">
        <ele>1842.8800000000001</ele>
        <time>2024-06-29T07:41:47Z</time>
      </trkpt>
      <trkpt lat="45.618094950914383" lon="7.055111518129706">
        <ele>1845.95</ele>
        <time>2024-06-29T07:42:31Z</time>
      </trkpt>
      <trkpt lat="45.617687422782183" lon="7.054826030507684">
        <ele>1848.21</ele>
        <time>2024-06-29T07:43:15Z</time>
      </trkpt>
      <trkpt lat="45.617293892428279" lon="7.054514894261956">
        <ele>1850.26</ele>
        <time>2024-06-29T07:43:58Z</time>
      </trkpt>
      <trkpt lat="45.616896254941821" lon="7.054185904562473">
        <ele>1852.0699999999999</ele>
        <time>2024-06-29T07:44:42Z</time>
      </trkpt>
      <trkpt lat="45.616462659090757" lon="7.053891699761152">
        <ele>1855.02</ele>
        <time>2024-06-29T07:45:29Z</time>
      </trkpt>
      <trkpt lat="45.616118581965566" lon="7.053466150537133">
        <ele>1858.71</ele>
        <time>2024-06-29T07:46:16Z</time>
      </trkpt>
      <trkpt lat="45.6165277864784" lon="7.053643176332116">
        <ele>1863.6900000000001</ele>
        <time>2024-06-29T07:47:14Z</time>
      </trkpt>
      <trkpt lat="45.616874461993575" lon="7.053674776107073">
        <ele>1870.25</ele>
        <time>2024-06-29T07:48:16Z</time>
      </trkpt>
      <trkpt lat="45.616495264694095" lon="7.053267667070031">
        <ele>1876.29</ele>
        <time>2024-06-29T07:49:13Z</time>
      </trkpt>
      <trkpt lat="45.616121347993612" lon="7.052832311019301">
        <ele>1881.6300000000001</ele>
        <time>2024-06-29T07:50:11Z</time>
      </trkpt>
      <trkpt lat="45.615724716335535" lon="7.052503321319819">
        <ele>1887.6099999999999</ele>
        <time>2024-06-29T07:51:06Z</time>
      </trkpt>
      <trkpt lat="45.615289527922869" lon="7.052294863387942">
        <ele>1893.3</ele>
        <time>2024-06-29T07:52:03Z</time>
      </trkpt>
      <trkpt lat="45.615338645875454" lon="7.052013231441379">
        <ele>1899.5999999999999</ele>
        <time>2024-06-29T07:53:02Z</time>
      </trkpt>
      <trkpt lat="45.615463703870773" lon="7.051902757957578">
        <ele>1906.3399999999999</ele>
        <time>2024-06-29T07:54:12Z</time>
      </trkpt>
      <trkpt lat="45.615088194608688" lon="7.051454493775964">
        <ele>1913.1600000000001</ele>
        <time>2024-06-29T07:55:09Z</time>
      </trkpt>
      <trkpt lat="45.614694161340594" lon="7.05113765783608">
        <ele>1918.55</ele>
        <time>2024-06-29T07:56:03Z</time>
      </trkpt>
      <trkpt lat="45.614438261836767" lon="7.050673216581345">
        <ele>1922.8299999999999</ele>
        <time>2024-06-29T07:57:15Z</time>
      </trkpt>
      <trkpt lat="45.614149337634444" lon="7.050122022628784">
        <ele>1930.0599999999999</ele>
        <time>2024-06-29T07:58:12Z</time>
      </trkpt>
      <trkpt lat="45.61377827078104" lon="7.049652384594083">
        <ele>1936.1800000000001</ele>
        <time>2024-06-29T07:59:10Z</time>
      </trkpt>
      <trkpt lat="45.613402258604765" lon="7.049252148717642">
        <ele>1941.75</ele>
        <time>2024-06-29T08:00:01Z</time>
      </trkpt>
      <trkpt lat="45.613798974081874" lon="7.049320712685585">
        <ele>1947.51</ele>
        <time>2024-06-29T08:00:55Z</time>
      </trkpt>
      <trkpt lat="45.61342790722847" lon="7.048940006643534">
        <ele>1953.75</ele>
        <time>2024-06-29T08:01:49Z</time>
      </trkpt>
      <trkpt lat="45.613060863688588" lon="7.048570364713669">
        <ele>1957.72</ele>
        <time>2024-06-29T08:02:35Z</time>
      </trkpt>
      <trkpt lat="45.612825080752373" lon="7.048240704461932">
        <ele>1963.26</ele>
        <time>2024-06-29T08:03:23Z</time>
      </trkpt>
      <trkpt lat="45.613290863111615" lon="7.048476655036211">
        <ele>1967.6600000000001</ele>
        <time>2024-06-29T08:04:16Z</time>
      </trkpt>
      <trkpt lat="45.613746922463179" lon="7.048700619488955">
        <ele>1973.9000000000001</ele>
        <time>2024-06-29T08:05:14Z</time>
      </trkpt>
      <trkpt lat="45.613647848367691" lon="7.048204578459263">
        <ele>1981.2</ele>
        <time>2024-06-29T08:06:16Z</time>
      </trkpt>
      <trkpt lat="45.613291449844837" lon="7.047685571014881">
        <ele>1987.5799999999999</ele>
        <time>2024-06-29T08:07:15Z</time>
      </trkpt>
      <trkpt lat="45.613202936947346" lon="7.047465294599533">
        <ele>1994.5</ele>
        <time>2024-06-29T08:10:09Z</time>
      </trkpt>
      <trkpt lat="45.613669222220778" lon="7.047575935721397">
        <ele>2000.6800000000001</ele>
        <time>2024-06-29T08:11:10Z</time>
      </trkpt>
      <trkpt lat="45.614132070913911" lon="7.047816496342421">
        <ele>2005.28</ele>
        <time>2024-06-29T08:12:08Z</time>
      </trkpt>
      <trkpt lat="45.614040456712246" lon="7.047428581863642">
        <ele>2010.1900000000001</ele>
        <time>2024-06-29T08:13:02Z</time>
      </trkpt>
      <trkpt lat="45.613685566931963" lon="7.046936228871346">
        <ele>2015.48</ele>
        <time>2024-06-29T08:14:00Z</time>
      </trkpt>
      <trkpt lat="45.613266471773386" lon="7.046620231121779">
        <ele>2018.26</ele>
        <time>2024-06-29T08:14:48Z</time>
      </trkpt>
      <trkpt lat="45.612845784053206" lon="7.046426357701421">
        <ele>2022.55</ele>
        <time>2024-06-29T08:15:42Z</time>
      </trkpt>
      <trkpt lat="45.612704046070576" lon="7.045737784355879">
        <ele>2025.9000000000001</ele>
        <time>2024-06-29T08:16:35Z</time>
      </trkpt>
      <trkpt lat="45.612426521256566" lon="7.045087683945894">
        <ele>2032.22</ele>
        <time>2024-06-29T08:17:36Z</time>
      </trkpt>
      <trkpt lat="45.612097615376115" lon="7.044560546055436">
        <ele>2037.53</ele>
        <time>2024-06-29T08:18:45Z</time>
      </trkpt>
      <trkpt lat="45.612319903448224" lon="7.044648891314864">
        <ele>2042.71</ele>
        <time>2024-06-29T08:19:42Z</time>
      </trkpt>
      <trkpt lat="45.61229576356709" lon="7.044141450896859">
        <ele>2048.4899999999998</ele>
        <time>2024-06-29T08:20:35Z</time>
      </trkpt>
      <trkpt lat="45.612525008618832" lon="7.043961491435766">
        <ele>2054.0700000000002</ele>
        <time>2024-06-29T08:21:32Z</time>
      </trkpt>
      <trkpt lat="45.612716367468238" lon="7.044570436701179">
        <ele>2060.2199999999998</ele>
        <time>2024-06-29T08:22:30Z</time>
      </trkpt>
      <trkpt lat="45.612711338326335" lon="7.043938525021076">
        <ele>2066.25</ele>
        <time>2024-06-29T08:23:32Z</time>
      </trkpt>
      <trkpt lat="45.612446973100305" lon="7.043451284989715">
        <ele>2071.6500000000001</ele>
        <time>2024-06-29T08:24:28Z</time>
      </trkpt>
      <trkpt lat="45.612706728279591" lon="7.043450446799398">
        <ele>2077.4000000000001</ele>
        <time>2024-06-29T08:25:24Z</time>
      </trkpt>
      <trkpt lat="45.613001519814134" lon="7.043809024617076">
        <ele>2082.0300000000002</ele>
        <time>2024-06-29T08:26:18Z</time>
      </trkpt>
      <trkpt lat="45.613166391849518" lon="7.044166177511215">
        <ele>2086.2399999999998</ele>
        <time>2024-06-29T08:27:09Z</time>
      </trkpt>
      <trkpt lat="45.613254401832819" lon="7.04349503852427">
        <ele>2091.0300000000002</ele>
        <time>2024-06-29T08:28:05Z</time>
      </trkpt>
      <trkpt lat="45.613075364381075" lon="7.042930852621794">
        <ele>2094.9200000000001</ele>
        <time>2024-06-29T08:28:57Z</time>
      </trkpt>
      <trkpt lat="45.612734640017152" lon="7.042551739141345">
        <ele>2101.52</ele>
        <time>2024-06-29T08:29:49Z</time>
      </trkpt>
      <trkpt lat="45.612325435504317" lon="7.042264239862561">
        <ele>2105.2600000000002</ele>
        <time>2024-06-29T08:30:39Z</time>
      </trkpt>
      <trkpt lat="45.611964426934719" lon="7.041960814967752">
        <ele>2111.0300000000002</ele>
        <time>2024-06-29T08:31:32Z</time>
      </trkpt>
      <trkpt lat="45.612176405265927" lon="7.04202183522284">
        <ele>2115.6199999999999</ele>
        <time>2024-06-29T08:38:23Z</time>
      </trkpt>
      <trkpt lat="45.612438591197133" lon="7.041876576840878">
        <ele>2121.0100000000002</ele>
        <time>2024-06-29T08:39:23Z</time>
      </trkpt>
      <trkpt lat="45.612788954749703" lon="7.041698545217514">
        <ele>2127.0999999999999</ele>
        <time>2024-06-29T08:41:24Z</time>
      </trkpt>
      <trkpt lat="45.613059690222144" lon="7.041521603241563">
        <ele>2138.5</ele>
        <time>2024-06-29T08:43:29Z</time>
      </trkpt>
      <trkpt lat="45.613362360745668" lon="7.041238965466619">
        <ele>2149.52</ele>
        <time>2024-06-29T08:44:47Z</time>
      </trkpt>
      <trkpt lat="45.613672323524952" lon="7.041089264675975">
        <ele>2160.3099999999999</ele>
        <time>2024-06-29T08:46:06Z</time>
      </trkpt>
      <trkpt lat="45.613759662955999" lon="7.040756167843938">
        <ele>2170.1999999999998</ele>
        <time>2024-06-29T08:47:28Z</time>
      </trkpt>
      <trkpt lat="45.613912213593721" lon="7.040398512035608">
        <ele>2179.9200000000001</ele>
        <time>2024-06-29T08:48:47Z</time>
      </trkpt>
      <trkpt lat="45.614023692905903" lon="7.039929879829288">
        <ele>2186.8499999999999</ele>
        <time>2024-06-29T08:50:16Z</time>
      </trkpt>
      <trkpt lat="45.613639298826456" lon="7.039681104943156">
        <ele>2194</ele>
        <time>2024-06-29T08:51:52Z</time>
      </trkpt>
      <trkpt lat="45.613688752055168" lon="7.039044415578246">
        <ele>2200.7399999999998</ele>
        <time>2024-06-29T08:52:58Z</time>
      </trkpt>
      <trkpt lat="45.613842811435461" lon="7.03846606425941">
        <ele>2209.1799999999998</ele>
        <time>2024-06-29T08:54:26Z</time>
      </trkpt>
      <trkpt lat="45.613964013755322" lon="7.038045711815357">
        <ele>2213.52</ele>
        <time>2024-06-29T08:57:05Z</time>
      </trkpt>
      <trkpt lat="45.614063171669841" lon="7.037408938631415">
        <ele>2220.6700000000001</ele>
        <time>2024-06-29T08:58:13Z</time>
      </trkpt>
      <trkpt lat="45.613960325717926" lon="7.03685162588954">
        <ele>2225.3400000000001</ele>
        <time>2024-06-29T08:59:33Z</time>
      </trkpt>
      <trkpt lat="45.614179009571671" lon="7.036369163542986">
        <ele>2239.1100000000001</ele>
        <time>2024-06-29T09:01:12Z</time>
      </trkpt>
      <trkpt lat="45.614406494423747" lon="7.036019386723638">
        <ele>2250.4000000000001</ele>
        <time>2024-06-29T09:02:43Z</time>
      </trkpt>
      <trkpt lat="45.614546220749617" lon="7.035507839173079">
        <ele>2260.4299999999998</ele>
        <time>2024-06-29T09:04:45Z</time>
      </trkpt>
      <trkpt lat="45.61473255045712" lon="7.035136520862579">
        <ele>2271.4000000000001</ele>
        <time>2024-06-29T09:06:52Z</time>
      </trkpt>
      <trkpt lat="45.614806227385998" lon="7.034640479832888">
        <ele>2285.3400000000001</ele>
        <time>2024-06-29T09:08:46Z</time>
      </trkpt>
      <trkpt lat="45.614732215180993" lon="7.034362955018878">
        <ele>2295.54</ele>
        <time>2024-06-29T09:11:06Z</time>
      </trkpt>
      <trkpt lat="45.614465503022075" lon="7.034026002511382">
        <ele>2306.4000000000001</ele>
        <time>2024-06-29T09:12:32Z</time>
      </trkpt>
      <trkpt lat="45.614240113645792" lon="7.033525016158819">
        <ele>2315.6500000000001</ele>
        <time>2024-06-29T09:15:01Z</time>
      </trkpt>
      <trkpt lat="45.61423173174262" lon="7.032907353714109">
        <ele>2326.4400000000001</ele>
        <time>2024-06-29T09:16:22Z</time>
      </trkpt>
      <trkpt lat="45.613963846117258" lon="7.032647682353854">
        <ele>2333.6700000000001</ele>
        <time>2024-06-29T09:19:19Z</time>
      </trkpt>
      <trkpt lat="45.613687913864851" lon="7.032404690980911">
        <ele>2348.3499999999999</ele>
        <time>2024-06-29T09:21:06Z</time>
      </trkpt>
      <trkpt lat="45.613463949412107" lon="7.032018871977925">
        <ele>2360.9099999999999</ele>
        <time>2024-06-29T09:22:47Z</time>
      </trkpt>
      <trkpt lat="45.613476354628801" lon="7.031668424606323">
        <ele>2375.21</ele>
        <time>2024-06-29T09:24:57Z</time>
      </trkpt>
      <trkpt lat="45.613525388762355" lon="7.031176323071122">
        <ele>2386.54</ele>
        <time>2024-06-29T09:26:15Z</time>
      </trkpt>
      <trkpt lat="45.613512564450502" lon="7.030600821599364">
        <ele>2396.6199999999999</ele>
        <time>2024-06-29T09:27:39Z</time>
      </trkpt>
      <trkpt lat="45.613740300759673" lon="7.030120622366667">
        <ele>2400.4200000000001</ele>
        <time>2024-06-29T09:29:14Z</time>
      </trkpt>
      <trkpt lat="45.613785143941641" lon="7.029523747041822">
        <ele>2408.4400000000001</ele>
        <time>2024-06-29T09:30:13Z</time>
      </trkpt>
      <trkpt lat="45.613820180296898" lon="7.029194589704275">
        <ele>2412.8200000000002</ele>
        <time>2024-06-29T09:38:30Z</time>
      </trkpt>
      <trkpt lat="45.614008521661162" lon="7.02882494777441">
        <ele>2414.4899999999998</ele>
        <time>2024-06-29T09:44:00Z</time>
      </trkpt>
      <trkpt lat="45.614267522469163" lon="7.028290936723352">
        <ele>2415.3699999999999</ele>
        <time>2024-06-29T09:44:48Z</time>
      </trkpt>
      <trkpt lat="45.614545214921236" lon="7.027757680043578">
        <ele>2416.54</ele>
        <time>2024-06-29T09:45:34Z</time>
      </trkpt>
      <trkpt lat="45.61488795094192" lon="7.027342859655619">
        <ele>2419</ele>
        <time>2024-06-29T09:46:22Z</time>
      </trkpt>
      <trkpt lat="45.615152567625046" lon="7.026867521926761">
        <ele>2424.0900000000001</ele>
        <time>2024-06-29T09:47:28Z</time>
      </trkpt>
      <trkpt lat="45.615411400794983" lon="7.026423029601574">
        <ele>2429.4899999999998</ele>
        <time>2024-06-29T09:48:25Z</time>
      </trkpt>
      <trkpt lat="45.615754975005984" lon="7.026090687140822">
        <ele>2440.9099999999999</ele>
        <time>2024-06-29T09:49:48Z</time>
      </trkpt>
      <trkpt lat="45.616088826209307" lon="7.025668993592262">
        <ele>2453.6700000000001</ele>
        <time>2024-06-29T09:51:18Z</time>
      </trkpt>
      <trkpt lat="45.616398369893432" lon="7.025257274508476">
        <ele>2464.4299999999998</ele>
        <time>2024-06-29T09:52:46Z</time>
      </trkpt>
      <trkpt lat="45.616790726780891" lon="7.024944042786956">
        <ele>2472.4499999999998</ele>
        <time>2024-06-29T09:55:40Z</time>
      </trkpt>
      <trkpt lat="45.617156596854329" lon="7.0246706251055">
        <ele>2483.25</ele>
        <time>2024-06-29T09:57:03Z</time>
      </trkpt>
      <trkpt lat="45.61744786798954" lon="7.024274663999677">
        <ele>2495.6799999999998</ele>
        <time>2024-06-29T09:58:33Z</time>
      </trkpt>
      <trkpt lat="45.617704018950462" lon="7.024091854691505">
        <ele>2504.5999999999999</ele>
        <time>2024-06-29T10:00:30Z</time>
      </trkpt>
      <trkpt lat="45.617794962599874" lon="7.024295870214701">
        <ele>2515.7600000000002</ele>
        <time>2024-06-29T10:02:10Z</time>
      </trkpt>
      <trkpt lat="45.618165777996182" lon="7.023920360952616">
        <ele>2531.3800000000001</ele>
        <time>2024-06-29T10:03:55Z</time>
      </trkpt>
      <trkpt lat="45.618551345542073" lon="7.023980207741261">
        <ele>2547.3200000000002</ele>
        <time>2024-06-29T10:05:57Z</time>
      </trkpt>
      <trkpt lat="45.618588980287313" lon="7.024164609611034">
        <ele>2553.9000000000001</ele>
        <time>2024-06-29T10:11:39Z</time>
      </trkpt>
      <trkpt lat="45.618891483172774" lon="7.023682398721576">
        <ele>2566.0300000000002</ele>
        <time>2024-06-29T10:13:07Z</time>
      </trkpt>
      <trkpt lat="45.619133301079273" lon="7.02368600293994">
        <ele>2580.3899999999999</ele>
        <time>2024-06-29T10:14:49Z</time>
      </trkpt>
      <trkpt lat="45.619249222800136" lon="7.024086238816381">
        <ele>2589.2399999999998</ele>
        <time>2024-06-29T10:16:17Z</time>
      </trkpt>
      <trkpt lat="45.619462542235851" lon="7.024241890758276">
        <ele>2599.27</ele>
        <time>2024-06-29T10:17:59Z</time>
      </trkpt>
      <trkpt lat="45.619738977402449" lon="7.024323027580977">
        <ele>2610.8400000000001</ele>
        <time>2024-06-29T10:21:03Z</time>
      </trkpt>
      <trkpt lat="45.619935616850853" lon="7.024022871628404">
        <ele>2620.3899999999999</ele>
        <time>2024-06-29T10:22:15Z</time>
      </trkpt>
      <trkpt lat="45.620381617918611" lon="7.024129489436746">
        <ele>2622.1399999999999</ele>
        <time>2024-06-29T10:23:59Z</time>
      </trkpt>
      <trkpt lat="45.620764587074518" lon="7.023908961564302">
        <ele>2629.5999999999999</ele>
        <time>2024-06-29T10:25:24Z</time>
      </trkpt>
      <trkpt lat="45.621009757742286" lon="7.023616349324584">
        <ele>2642.6500000000001</ele>
        <time>2024-06-29T10:27:35Z</time>
      </trkpt>
      <trkpt lat="45.621229615062475" lon="7.023461116477847">
        <ele>2659.7800000000002</ele>
        <time>2024-06-29T10:30:28Z</time>
      </trkpt>
      <trkpt lat="45.621548127382994" lon="7.023482490330935">
        <ele>2675.7600000000002</ele>
        <time>2024-06-29T10:33:14Z</time>
      </trkpt>
      <trkpt lat="45.621830429881811" lon="7.023628167808056">
        <ele>2691.8299999999999</ele>
        <time>2024-06-29T10:37:00Z</time>
      </trkpt>
      <trkpt lat="45.621990105137229" lon="7.023686673492193">
        <ele>2701.4200000000001</ele>
        <time>2024-06-29T10:38:45Z</time>
      </trkpt>
      <trkpt lat="45.62212890945375" lon="7.024279274046421">
        <ele>2715.73</ele>
        <time>2024-06-29T10:42:59Z</time>
      </trkpt>
      <trkpt lat="45.622406853362918" lon="7.024444229900837">
        <ele>2739.0700000000002</ele>
        <time>2024-06-29T10:49:05Z</time>
      </trkpt>
      <trkpt lat="45.622573317959905" lon="7.024695435538888">
        <ele>2754.4699999999998</ele>
        <time>2024-06-29T10:52:41Z</time>
      </trkpt>
      <trkpt lat="45.622679013758898" lon="7.024964997544885">
        <ele>2765.8299999999999</ele>
        <time>2024-06-29T10:55:56Z</time>
      </trkpt>
      <trkpt lat="45.622855704277754" lon="7.025523148477078">
        <ele>2779.4000000000001</ele>
        <time>2024-06-29T10:58:23Z</time>
      </trkpt>
      <trkpt lat="45.623044883832335" lon="7.025684919208288">
        <ele>2796.2199999999998</ele>
        <time>2024-06-29T11:01:22Z</time>
      </trkpt>
      <trkpt lat="45.623188717290759" lon="7.025750800967217">
        <ele>2807.4499999999998</ele>
        <time>2024-06-29T11:06:50Z</time>
      </trkpt>
      <trkpt lat="45.623019738122821" lon="7.026211805641651">
        <ele>2819.1399999999999</ele>
        <time>2024-06-29T11:09:15Z</time>
      </trkpt>
      <trkpt lat="45.623185029253364" lon="7.026405008509755">
        <ele>2837.5</ele>
        <time>2024-06-29T11:12:03Z</time>
      </trkpt>
      <trkpt lat="45.623474456369877" lon="7.02621909789741">
        <ele>2847.1500000000001</ele>
        <time>2024-06-29T11:14:40Z</time>
      </trkpt>
      <trkpt lat="45.623530531302094" lon="7.02620099298656">
        <ele>2858.9699999999998</ele>
        <time>2024-06-29T11:16:29Z</time>
      </trkpt>
      <trkpt lat="45.623782658949494" lon="7.02628648839891">
        <ele>2874.8099999999999</ele>
        <time>2024-06-29T11:19:40Z</time>
      </trkpt>
      <trkpt lat="45.623950799927115" lon="7.026871126145124">
        <ele>2884.1700000000001</ele>
        <time>2024-06-29T11:21:39Z</time>
      </trkpt>
      <trkpt lat="45.624135537073016" lon="7.027377644553781">
        <ele>2897.4000000000001</ele>
        <time>2024-06-29T11:25:48Z</time>
      </trkpt>
      <trkpt lat="45.624178200960159" lon="7.028021458536387">
        <ele>2918.2399999999998</ele>
        <time>2024-06-29T11:31:01Z</time>
      </trkpt>
      <trkpt lat="45.624312981963158" lon="7.028289260342717">
        <ele>2938.98</ele>
        <time>2024-06-29T11:33:56Z</time>
      </trkpt>
      <trkpt lat="45.624404763802886" lon="7.028568964451551">
        <ele>2937.9699999999998</ele>
        <time>2024-06-29T11:38:01Z</time>
      </trkpt>
      <trkpt lat="45.624541053548455" lon="7.029155865311623">
        <ele>2928.4699999999998</ele>
        <time>2024-06-29T11:39:00Z</time>
      </trkpt>
      <trkpt lat="45.624604253098369" lon="7.029592730104923">
        <ele>2918.5</ele>
        <time>2024-06-29T11:41:41Z</time>
      </trkpt>
      <trkpt lat="45.62452420592308" lon="7.029582504183054">
        <ele>2919.5999999999999</ele>
        <time>2024-06-29T11:44:18Z</time>
      </trkpt>
      <trkpt lat="45.624536862596869" lon="7.029653498902917">
        <ele>2919.1900000000001</ele>
        <time>2024-06-29T11:45:54Z</time>
      </trkpt>
    </trkseg>
  </trk>

  <trk>
    <name>rifugio degli angeli bonne2024-06-30</name>
    <extensions>
      <gpxx:TrackExtension>
        <gpxx:DisplayColor>Yellow</gpxx:DisplayColor>
      </gpxx:TrackExtension>
    </extensions>
    <trkseg>
      <trkpt lat="45.625660708174109" lon="7.029697839170694">
        <ele>3031.1700000000001</ele>
        <time>2024-06-30T06:06:09Z</time>
      </trkpt>
      <trkpt lat="45.624422701075673" lon="7.029026867821813">
        <ele>3037.54</ele>
        <time>2024-06-30T06:08:38Z</time>
      </trkpt>
      <trkpt lat="45.624271240085363" lon="7.028432758525014">
        <ele>3040.1199999999999</ele>
        <time>2024-06-30T06:09:55Z</time>
      </trkpt>
      <trkpt lat="45.624213991686702" lon="7.027923474088311">
        <ele>3016.0300000000002</ele>
        <time>2024-06-30T06:12:21Z</time>
      </trkpt>
      <trkpt lat="45.624115169048309" lon="7.027677716687322">
        <ele>2995.9899999999998</ele>
        <time>2024-06-30T06:13:56Z</time>
      </trkpt>
      <trkpt lat="45.623903777450323" lon="7.027104729786515">
        <ele>2977.27</ele>
        <time>2024-06-30T06:15:18Z</time>
      </trkpt>
      <trkpt lat="45.623789113014936" lon="7.026549261063337">
        <ele>2953.0599999999999</ele>
        <time>2024-06-30T06:21:50Z</time>
      </trkpt>
      <trkpt lat="45.623655337840319" lon="7.026070319116116">
        <ele>2938.6399999999999</ele>
        <time>2024-06-30T06:23:17Z</time>
      </trkpt>
      <trkpt lat="45.623488202691078" lon="7.026138044893742">
        <ele>2920</ele>
        <time>2024-06-30T06:27:43Z</time>
      </trkpt>
      <trkpt lat="45.623240349814296" lon="7.026302078738809">
        <ele>2905.73</ele>
        <time>2024-06-30T06:28:47Z</time>
      </trkpt>
      <trkpt lat="45.623001046478748" lon="7.026434428989887">
        <ele>2889.1999999999998</ele>
        <time>2024-06-30T06:31:19Z</time>
      </trkpt>
      <trkpt lat="45.623051337897778" lon="7.025995384901762">
        <ele>2869.2199999999998</ele>
        <time>2024-06-30T06:34:19Z</time>
      </trkpt>
      <trkpt lat="45.622982522472739" lon="7.025908129289746">
        <ele>2856.5999999999999</ele>
        <time>2024-06-30T06:37:27Z</time>
      </trkpt>
      <trkpt lat="45.622861571609974" lon="7.025691708549857">
        <ele>2839.8600000000001</ele>
        <time>2024-06-30T06:39:14Z</time>
      </trkpt>
      <trkpt lat="45.622698375955224" lon="7.02526724897325">
        <ele>2821.5700000000002</ele>
        <time>2024-06-30T06:45:12Z</time>
      </trkpt>
      <trkpt lat="45.622626123949885" lon="7.024823091924191">
        <ele>2806.6599999999999</ele>
        <time>2024-06-30T06:49:13Z</time>
      </trkpt>
      <trkpt lat="45.622550854459405" lon="7.024519750848413">
        <ele>2790.4400000000001</ele>
        <time>2024-06-30T06:50:25Z</time>
      </trkpt>
      <trkpt lat="45.622584046795964" lon="7.023912901058793">
        <ele>2783.9499999999998</ele>
        <time>2024-06-30T06:52:08Z</time>
      </trkpt>
      <trkpt lat="45.62237961217761" lon="7.023940561339259">
        <ele>2768.3000000000002</ele>
        <time>2024-06-30T06:56:59Z</time>
      </trkpt>
      <trkpt lat="45.622175009921193" lon="7.023860011249781">
        <ele>2753.3499999999999</ele>
        <time>2024-06-30T07:01:10Z</time>
      </trkpt>
      <trkpt lat="45.6221211142838" lon="7.023800667375326">
        <ele>2748.3200000000002</ele>
        <time>2024-06-30T07:05:05Z</time>
      </trkpt>
      <trkpt lat="45.621995218098164" lon="7.02360293827951">
        <ele>2735.5500000000002</ele>
        <time>2024-06-30T07:06:07Z</time>
      </trkpt>
      <trkpt lat="45.621753400191665" lon="7.023772085085511">
        <ele>2723.2800000000002</ele>
        <time>2024-06-30T07:07:17Z</time>
      </trkpt>
      <trkpt lat="45.621522814035416" lon="7.023582402616739">
        <ele>2709.0900000000001</ele>
        <time>2024-06-30T07:09:47Z</time>
      </trkpt>
      <trkpt lat="45.621293820440769" lon="7.023493805900216">
        <ele>2693.54</ele>
        <time>2024-06-30T07:11:42Z</time>
      </trkpt>
      <trkpt lat="45.62102266587317" lon="7.023677537217736">
        <ele>2678.52</ele>
        <time>2024-06-30T07:13:09Z</time>
      </trkpt>
      <trkpt lat="45.620815129950643" lon="7.0238365419209">
        <ele>2661.6999999999998</ele>
        <time>2024-06-30T07:14:55Z</time>
      </trkpt>
      <trkpt lat="45.620433418080211" lon="7.024171315133572">
        <ele>2652.5500000000002</ele>
        <time>2024-06-30T07:15:50Z</time>
      </trkpt>
      <trkpt lat="45.620011556893587" lon="7.024164106696844">
        <ele>2650.23</ele>
        <time>2024-06-30T07:16:57Z</time>
      </trkpt>
      <trkpt lat="45.619662953540683" lon="7.024229234084487">
        <ele>2623.8899999999999</ele>
        <time>2024-06-30T07:23:14Z</time>
      </trkpt>
      <trkpt lat="45.619362881407142" lon="7.02422303147614">
        <ele>2607.0999999999999</ele>
        <time>2024-06-30T07:24:36Z</time>
      </trkpt>
      <trkpt lat="45.619201445952058" lon="7.023814916610718">
        <ele>2597.7600000000002</ele>
        <time>2024-06-30T07:25:56Z</time>
      </trkpt>
      <trkpt lat="45.619008159264922" lon="7.023512413725257">
        <ele>2581.5599999999999</ele>
        <time>2024-06-30T07:28:01Z</time>
      </trkpt>
      <trkpt lat="45.618740441277623" lon="7.023953218013048">
        <ele>2569.23</ele>
        <time>2024-06-30T07:29:22Z</time>
      </trkpt>
      <trkpt lat="45.618450846523046" lon="7.024178104475141">
        <ele>2560.9299999999998</ele>
        <time>2024-06-30T07:30:59Z</time>
      </trkpt>
      <trkpt lat="45.618317909538746" lon="7.02390787191689">
        <ele>2546.4299999999998</ele>
        <time>2024-06-30T07:32:16Z</time>
      </trkpt>
      <trkpt lat="45.617937371134758" lon="7.024159748107195">
        <ele>2533.8299999999999</ele>
        <time>2024-06-30T07:34:10Z</time>
      </trkpt>
      <trkpt lat="45.617648279294372" lon="7.024344149976969">
        <ele>2518.8299999999999</ele>
        <time>2024-06-30T07:35:19Z</time>
      </trkpt>
      <trkpt lat="45.617540990933776" lon="7.024204088374972">
        <ele>2507.48</ele>
        <time>2024-06-30T07:36:29Z</time>
      </trkpt>
      <trkpt lat="45.617211917415261" lon="7.024617902934551">
        <ele>2495.4499999999998</ele>
        <time>2024-06-30T07:37:30Z</time>
      </trkpt>
      <trkpt lat="45.616839090362191" lon="7.024946808815002">
        <ele>2485.2600000000002</ele>
        <time>2024-06-30T07:38:37Z</time>
      </trkpt>
      <trkpt lat="45.616470538079739" lon="7.025254089385271">
        <ele>2473.4699999999998</ele>
        <time>2024-06-30T07:39:37Z</time>
      </trkpt>
      <trkpt lat="45.616153031587601" lon="7.025659689679742">
        <ele>2464.21</ele>
        <time>2024-06-30T07:40:52Z</time>
      </trkpt>
      <trkpt lat="45.615838542580605" lon="7.026077779009938">
        <ele>2452.8899999999999</ele>
        <time>2024-06-30T07:41:53Z</time>
      </trkpt>
      <trkpt lat="45.615490777418017" lon="7.026379192247987">
        <ele>2441.96</ele>
        <time>2024-06-30T07:42:54Z</time>
      </trkpt>
      <trkpt lat="45.615259688347578" lon="7.026867270469666">
        <ele>2433.98</ele>
        <time>2024-06-30T07:43:43Z</time>
      </trkpt>
      <trkpt lat="45.614973362535238" lon="7.027329616248608">
        <ele>2429.9099999999999</ele>
        <time>2024-06-30T07:44:33Z</time>
      </trkpt>
      <trkpt lat="45.61464311555028" lon="7.027773605659604">
        <ele>2425.9299999999998</ele>
        <time>2024-06-30T07:45:21Z</time>
      </trkpt>
      <trkpt lat="45.614348156377673" lon="7.028255229815841">
        <ele>2425.0300000000002</ele>
        <time>2024-06-30T07:46:05Z</time>
      </trkpt>
      <trkpt lat="45.614079013466835" lon="7.028763592243195">
        <ele>2423.5799999999999</ele>
        <time>2024-06-30T07:46:47Z</time>
      </trkpt>
      <trkpt lat="45.613888828083873" lon="7.029284276068211">
        <ele>2421.9400000000001</ele>
        <time>2024-06-30T07:47:33Z</time>
      </trkpt>
      <trkpt lat="45.613704677671194" lon="7.029824070632458">
        <ele>2415.6999999999998</ele>
        <time>2024-06-30T07:48:22Z</time>
      </trkpt>
      <trkpt lat="45.613584062084556" lon="7.030435279011726">
        <ele>2410.0799999999999</ele>
        <time>2024-06-30T07:49:07Z</time>
      </trkpt>
      <trkpt lat="45.613569980487227" lon="7.03060744330287">
        <ele>2406.8099999999999</ele>
        <time>2024-06-30T08:06:36Z</time>
      </trkpt>
      <trkpt lat="45.613595126196742" lon="7.031143717467785">
        <ele>2396.8899999999999</ele>
        <time>2024-06-30T08:07:44Z</time>
      </trkpt>
      <trkpt lat="45.613583391532302" lon="7.031630370765925">
        <ele>2387.9000000000001</ele>
        <time>2024-06-30T08:09:30Z</time>
      </trkpt>
      <trkpt lat="45.613468894734979" lon="7.031900435686112">
        <ele>2379</ele>
        <time>2024-06-30T08:11:58Z</time>
      </trkpt>
      <trkpt lat="45.61359646730125" lon="7.032264797016978">
        <ele>2361.9499999999998</ele>
        <time>2024-06-30T08:13:21Z</time>
      </trkpt>
      <trkpt lat="45.613838285207748" lon="7.032663524150848">
        <ele>2349.8000000000002</ele>
        <time>2024-06-30T08:14:20Z</time>
      </trkpt>
      <trkpt lat="45.614191666245461" lon="7.032715827226639">
        <ele>2338.0700000000002</ele>
        <time>2024-06-30T08:15:40Z</time>
      </trkpt>
      <trkpt lat="45.614240951836109" lon="7.033231733366847">
        <ele>2329.71</ele>
        <time>2024-06-30T08:17:35Z</time>
      </trkpt>
      <trkpt lat="45.614342708140612" lon="7.033804301172495">
        <ele>2321.1999999999998</ele>
        <time>2024-06-30T08:18:28Z</time>
      </trkpt>
      <trkpt lat="45.614676224067807" lon="7.034195652231574">
        <ele>2312.5599999999999</ele>
        <time>2024-06-30T08:19:27Z</time>
      </trkpt>
      <trkpt lat="45.614943858236074" lon="7.034430177882314">
        <ele>2301.9899999999998</ele>
        <time>2024-06-30T08:20:40Z</time>
      </trkpt>
      <trkpt lat="45.6147819198668" lon="7.034775093197823">
        <ele>2289.5</ele>
        <time>2024-06-30T08:22:30Z</time>
      </trkpt>
      <trkpt lat="45.61474084854126" lon="7.035261830314994">
        <ele>2278.29</ele>
        <time>2024-06-30T08:23:27Z</time>
      </trkpt>
      <trkpt lat="45.614555524662137" lon="7.03572241589427">
        <ele>2267.29</ele>
        <time>2024-06-30T08:24:29Z</time>
      </trkpt>
      <trkpt lat="45.614373972639441" lon="7.036107145249844">
        <ele>2255.9099999999999</ele>
        <time>2024-06-30T08:25:31Z</time>
      </trkpt>
      <trkpt lat="45.614166269078851" lon="7.036488773301244">
        <ele>2243.4000000000001</ele>
        <time>2024-06-30T08:26:36Z</time>
      </trkpt>
      <trkpt lat="45.613971808925271" lon="7.03698456287384">
        <ele>2231.4200000000001</ele>
        <time>2024-06-30T08:28:01Z</time>
      </trkpt>
      <trkpt lat="45.614050012081861" lon="7.037246329709888">
        <ele>2221.2399999999998</ele>
        <time>2024-06-30T08:41:20Z</time>
      </trkpt>
      <trkpt lat="45.614033499732614" lon="7.037856532260776">
        <ele>2216.3699999999999</ele>
        <time>2024-06-30T08:42:24Z</time>
      </trkpt>
      <trkpt lat="45.613886564970016" lon="7.038477379828692">
        <ele>2209.0599999999999</ele>
        <time>2024-06-30T08:43:21Z</time>
      </trkpt>
      <trkpt lat="45.613717837259173" lon="7.039057575166225">
        <ele>2200.0900000000001</ele>
        <time>2024-06-30T08:44:11Z</time>
      </trkpt>
      <trkpt lat="45.613654302433133" lon="7.039693929255009">
        <ele>2193.6500000000001</ele>
        <time>2024-06-30T08:45:01Z</time>
      </trkpt>
      <trkpt lat="45.613944567739964" lon="7.040007580071688">
        <ele>2182.8200000000002</ele>
        <time>2024-06-30T08:46:15Z</time>
      </trkpt>
      <trkpt lat="45.613945154473186" lon="7.040550308302045">
        <ele>2176.5</ele>
        <time>2024-06-30T08:47:10Z</time>
      </trkpt>
      <trkpt lat="45.613759914413095" lon="7.040806626901031">
        <ele>2166.6799999999998</ele>
        <time>2024-06-30T08:48:30Z</time>
      </trkpt>
      <trkpt lat="45.613687327131629" lon="7.041117427870631">
        <ele>2157.52</ele>
        <time>2024-06-30T08:49:33Z</time>
      </trkpt>
      <trkpt lat="45.613371413201094" lon="7.041235025972128">
        <ele>2146.3600000000001</ele>
        <time>2024-06-30T08:50:31Z</time>
      </trkpt>
      <trkpt lat="45.613091709092259" lon="7.041558064520359">
        <ele>2136.25</ele>
        <time>2024-06-30T08:51:33Z</time>
      </trkpt>
      <trkpt lat="45.612745452672243" lon="7.041556974872947">
        <ele>2123.3099999999999</ele>
        <time>2024-06-30T08:52:36Z</time>
      </trkpt>
      <trkpt lat="45.612405650317669" lon="7.041835589334369">
        <ele>2118.1500000000001</ele>
        <time>2024-06-30T08:53:57Z</time>
      </trkpt>
      <trkpt lat="45.612291237339377" lon="7.042041616514325">
        <ele>2112.54</ele>
        <time>2024-06-30T09:04:06Z</time>
      </trkpt>
      <trkpt lat="45.611992925405502" lon="7.042063493281603">
        <ele>2107.73</ele>
        <time>2024-06-30T09:04:50Z</time>
      </trkpt>
      <trkpt lat="45.61239056289196" lon="7.04229005612433">
        <ele>2102.75</ele>
        <time>2024-06-30T09:05:34Z</time>
      </trkpt>
      <trkpt lat="45.612763976678252" lon="7.042624661698937">
        <ele>2098.5799999999999</ele>
        <time>2024-06-30T09:06:16Z</time>
      </trkpt>
      <trkpt lat="45.613121381029487" lon="7.043019784614444">
        <ele>2092.9400000000001</ele>
        <time>2024-06-30T09:07:00Z</time>
      </trkpt>
      <trkpt lat="45.613251803442836" lon="7.043630573898554">
        <ele>2087.8800000000001</ele>
        <time>2024-06-30T09:07:46Z</time>
      </trkpt>
      <trkpt lat="45.613092966377735" lon="7.044248823076487">
        <ele>2082.8499999999999</ele>
        <time>2024-06-30T09:08:35Z</time>
      </trkpt>
      <trkpt lat="45.612984923645854" lon="7.043639793992043">
        <ele>2079.0599999999999</ele>
        <time>2024-06-30T09:09:20Z</time>
      </trkpt>
      <trkpt lat="45.612586196511984" lon="7.043381799012423">
        <ele>2072.3000000000002</ele>
        <time>2024-06-30T09:10:03Z</time>
      </trkpt>
      <trkpt lat="45.612478824332356" lon="7.043481795117259">
        <ele>2068.2399999999998</ele>
        <time>2024-06-30T09:12:25Z</time>
      </trkpt>
      <trkpt lat="45.612727850675583" lon="7.043908266350627">
        <ele>2064.4299999999998</ele>
        <time>2024-06-30T09:13:40Z</time>
      </trkpt>
      <trkpt lat="45.612694909796119" lon="7.044515032321215">
        <ele>2060.4099999999999</ele>
        <time>2024-06-30T09:18:13Z</time>
      </trkpt>
      <trkpt lat="45.612523248419166" lon="7.044012704864144">
        <ele>2053.9899999999998</ele>
        <time>2024-06-30T09:18:52Z</time>
      </trkpt>
      <trkpt lat="45.612275898456573" lon="7.044166177511215">
        <ele>2047.6199999999999</ele>
        <time>2024-06-30T09:19:34Z</time>
      </trkpt>
      <trkpt lat="45.612271204590797" lon="7.044586781412363">
        <ele>2041.8499999999999</ele>
        <time>2024-06-30T09:20:11Z</time>
      </trkpt>
      <trkpt lat="45.612288806587458" lon="7.04499221406877">
        <ele>2032.24</ele>
        <time>2024-06-30T09:20:57Z</time>
      </trkpt>
      <trkpt lat="45.612562643364072" lon="7.045557824894786">
        <ele>2024.8</ele>
        <time>2024-06-30T09:21:36Z</time>
      </trkpt>
      <trkpt lat="45.612726593390107" lon="7.04608085565269">
        <ele>2020.0699999999999</ele>
        <time>2024-06-30T09:22:19Z</time>
      </trkpt>
      <trkpt lat="45.612882077693939" lon="7.046573292464018">
        <ele>2017.3</ele>
        <time>2024-06-30T09:23:05Z</time>
      </trkpt>
      <trkpt lat="45.61311568133533" lon="7.046748474240303">
        <ele>2011.9000000000001</ele>
        <time>2024-06-30T09:23:56Z</time>
      </trkpt>
      <trkpt lat="45.613178880885243" lon="7.047257088124752">
        <ele>1992.3499999999999</ele>
        <time>2024-06-30T09:25:00Z</time>
      </trkpt>
      <trkpt lat="45.613021720200777" lon="7.047571493312717">
        <ele>1985.97</ele>
        <time>2024-06-30T09:27:04Z</time>
      </trkpt>
      <trkpt lat="45.613419860601425" lon="7.047930741682649">
        <ele>1979.05</ele>
        <time>2024-06-30T09:27:57Z</time>
      </trkpt>
      <trkpt lat="45.613728230819106" lon="7.048505991697311">
        <ele>1970.6800000000001</ele>
        <time>2024-06-30T09:28:51Z</time>
      </trkpt>
      <trkpt lat="45.613482221961021" lon="7.048511859029532">
        <ele>1963.4300000000001</ele>
        <time>2024-06-30T09:29:41Z</time>
      </trkpt>
      <trkpt lat="45.613045273348689" lon="7.04828504472971">
        <ele>1957.74</ele>
        <time>2024-06-30T09:30:33Z</time>
      </trkpt>
      <trkpt lat="45.612871935591102" lon="7.048340868204832">
        <ele>1953.8800000000001</ele>
        <time>2024-06-30T09:31:18Z</time>
      </trkpt>
      <trkpt lat="45.613208469003439" lon="7.048755520954728">
        <ele>1949.8599999999999</ele>
        <time>2024-06-30T09:32:05Z</time>
      </trkpt>
      <trkpt lat="45.613552797585726" lon="7.049032123759389">
        <ele>1945.8499999999999</ele>
        <time>2024-06-30T09:33:04Z</time>
      </trkpt>
      <trkpt lat="45.613783802837133" lon="7.049245107918978">
        <ele>1941.9200000000001</ele>
        <time>2024-06-30T09:35:27Z</time>
      </trkpt>
      <trkpt lat="45.61341030523181" lon="7.049156092107296">
        <ele>1937.4000000000001</ele>
        <time>2024-06-30T09:36:08Z</time>
      </trkpt>
      <trkpt lat="45.613700319081545" lon="7.049561943858862">
        <ele>1930.8299999999999</ele>
        <time>2024-06-30T09:36:51Z</time>
      </trkpt>
      <trkpt lat="45.614059902727604" lon="7.050019511952996">
        <ele>1925.1400000000001</ele>
        <time>2024-06-30T09:37:36Z</time>
      </trkpt>
      <trkpt lat="45.614421833306551" lon="7.050560396164656">
        <ele>1917.8399999999999</ele>
        <time>2024-06-30T09:38:24Z</time>
      </trkpt>
      <trkpt lat="45.614664992317557" lon="7.051095496863127">
        <ele>1914.9400000000001</ele>
        <time>2024-06-30T09:39:04Z</time>
      </trkpt>
      <trkpt lat="45.615076962858438" lon="7.051381906494498">
        <ele>1908.5799999999999</ele>
        <time>2024-06-30T09:39:47Z</time>
      </trkpt>
      <trkpt lat="45.615436127409339" lon="7.051806785166264">
        <ele>1903.0799999999999</ele>
        <time>2024-06-30T09:40:31Z</time>
      </trkpt>
      <trkpt lat="45.615395978093147" lon="7.051999988034368">
        <ele>1896.01</ele>
        <time>2024-06-30T09:41:20Z</time>
      </trkpt>
      <trkpt lat="45.615307632833719" lon="7.05224247649312">
        <ele>1889.72</ele>
        <time>2024-06-30T09:42:05Z</time>
      </trkpt>
      <trkpt lat="45.615757070481777" lon="7.05246577039361">
        <ele>1883.9300000000001</ele>
        <time>2024-06-30T09:42:48Z</time>
      </trkpt>
      <trkpt lat="45.616160575300455" lon="7.052788976579905">
        <ele>1877.3099999999999</ele>
        <time>2024-06-30T09:43:27Z</time>
      </trkpt>
      <trkpt lat="45.61652191914618" lon="7.053206395357847">
        <ele>1872.26</ele>
        <time>2024-06-30T09:44:08Z</time>
      </trkpt>
      <trkpt lat="45.616909163072705" lon="7.053633956238627">
        <ele>1866.71</ele>
        <time>2024-06-30T09:44:53Z</time>
      </trkpt>
      <trkpt lat="45.616557039320469" lon="7.053628424182534">
        <ele>1861.05</ele>
        <time>2024-06-30T09:45:35Z</time>
      </trkpt>
      <trkpt lat="45.616147750988603" lon="7.053366573527455">
        <ele>1856.0799999999999</ele>
        <time>2024-06-30T09:46:20Z</time>
      </trkpt>
      <trkpt lat="45.616350509226322" lon="7.053714171051979">
        <ele>1852.02</ele>
        <time>2024-06-30T09:50:49Z</time>
      </trkpt>
      <trkpt lat="45.616764994338155" lon="7.054027989506722">
        <ele>1848.8199999999999</ele>
        <time>2024-06-30T09:51:39Z</time>
      </trkpt>
      <trkpt lat="45.617200350388885" lon="7.054327977821231">
        <ele>1846.6700000000001</ele>
        <time>2024-06-30T09:52:23Z</time>
      </trkpt>
      <trkpt lat="45.617582984268665" lon="7.05465822480619">
        <ele>1843.8699999999999</ele>
        <time>2024-06-30T09:53:08Z</time>
      </trkpt>
      <trkpt lat="45.617995876818895" lon="7.054937090724707">
        <ele>1841.72</ele>
        <time>2024-06-30T09:53:52Z</time>
      </trkpt>
      <trkpt lat="45.618409775197506" lon="7.055210005491972">
        <ele>1839.4200000000001</ele>
        <time>2024-06-30T09:54:34Z</time>
      </trkpt>
      <trkpt lat="45.618834486231208" lon="7.055466575548053">
        <ele>1835.01</ele>
        <time>2024-06-30T09:55:22Z</time>
      </trkpt>
      <trkpt lat="45.619243271648884" lon="7.055723480880261">
        <ele>1830.8399999999999</ele>
        <time>2024-06-30T09:56:03Z</time>
      </trkpt>
      <trkpt lat="45.619563879445195" lon="7.056157160550356">
        <ele>1826.54</ele>
        <time>2024-06-30T09:56:57Z</time>
      </trkpt>
      <trkpt lat="45.6199452560395" lon="7.056481204926968">
        <ele>1824.99</ele>
        <time>2024-06-30T09:57:46Z</time>
      </trkpt>
      <trkpt lat="45.620356723666191" lon="7.056733248755336">
        <ele>1823.4300000000001</ele>
        <time>2024-06-30T09:58:27Z</time>
      </trkpt>
      <trkpt lat="45.620762156322598" lon="7.056981520727277">
        <ele>1821.6600000000001</ele>
        <time>2024-06-30T09:59:11Z</time>
      </trkpt>
      <trkpt lat="45.621185777708888" lon="7.057207999750972">
        <ele>1819.6800000000001</ele>
        <time>2024-06-30T09:59:50Z</time>
      </trkpt>
      <trkpt lat="45.621605459600687" lon="7.057479070499539">
        <ele>1816.0599999999999</ele>
        <time>2024-06-30T10:00:29Z</time>
      </trkpt>
      <trkpt lat="45.621956074610353" lon="7.057885341346264">
        <ele>1810.8399999999999</ele>
        <time>2024-06-30T10:01:07Z</time>
      </trkpt>
      <trkpt lat="45.62235270626843" lon="7.05819639377296">
        <ele>1810.5</ele>
        <time>2024-06-30T10:01:49Z</time>
      </trkpt>
    </trkseg>
  </trk>

</gpx>